Time;durP1;ratioP1;P1;durP2;ratioP2;P2;SDS_P1;SDS_P2;PMS_P1;PMS_P2;Temp;Humidity;BMP_temperature;BMP_pressure;BME280_temperature;BME280_humidity;BME280_pressure;Samples;Min_cycle;Max_cycle;Signal;HPM_P1;HPM_P2
2023/08/12 00:01:34;;;;;;;5.90;3.90;;;25.00;99.90;;;;;;5047179;28;20274;-30
2023/08/12 00:04:02;;;;;;;7.45;4.40;;;25.00;99.90;;;;;;5045765;28;20212;-30
2023/08/12 00:06:29;;;;;;;7.82;4.00;;;24.90;99.90;;;;;;5029237;28;20266;-30
2023/08/12 00:08:56;;;;;;;5.78;3.80;;;24.90;99.90;;;;;;5045998;28;20204;-30
2023/08/12 00:11:28;;;;;;;8.13;3.88;;;24.90;99.90;;;;;;5047318;28;20291;-30
2023/08/12 00:13:55;;;;;;;7.93;4.63;;;24.90;99.90;;;;;;5029078;28;20788;-30
2023/08/12 00:16:23;;;;;;;7.18;3.92;;;24.80;99.90;;;;;;5029048;28;20208;-23
2023/08/12 00:18:50;;;;;;;6.15;3.78;;;24.80;99.90;;;;;;5047074;28;20261;-23
2023/08/12 00:21:17;;;;;;;7.20;3.90;;;24.80;99.90;;;;;;5046658;28;20208;-23
2023/08/12 00:23:45;;;;;;;7.00;3.72;;;24.80;99.90;;;;;;5045251;28;20200;-23
2023/08/12 00:26:12;;;;;;;9.15;4.40;;;24.70;99.90;;;;;;5028988;28;20270;-23
2023/08/12 00:28:42;;;;;;;7.38;3.92;;;24.70;99.90;;;;;;5045715;28;20201;-23
2023/08/12 00:31:09;;;;;;;6.85;3.92;;;24.70;99.90;;;;;;5045699;28;20208;-23
2023/08/12 00:33:36;;;;;;;6.43;3.70;;;24.70;99.90;;;;;;5045955;28;20228;-23
2023/08/12 00:36:03;;;;;;;7.53;4.13;;;24.70;99.90;;;;;;5047767;28;20235;-23
2023/08/12 00:38:30;;;;;;;7.40;4.05;;;24.70;99.90;;;;;;5045053;28;20232;-23
2023/08/12 00:41:02;;;;;;;8.27;4.20;;;24.70;99.90;;;;;;5046528;28;20210;-23
2023/08/12 00:43:30;;;;;;;8.88;4.25;;;24.70;99.90;;;;;;5045295;28;20290;-22
2023/08/12 00:45:57;;;;;;;6.45;4.10;;;24.60;99.90;;;;;;5046659;28;20219;-23
2023/08/12 00:48:27;;;;;;;7.25;3.63;;;24.60;99.90;;;;;;5044941;28;20204;-23
2023/08/12 00:50:56;;;;;;;9.90;4.22;;;24.60;99.90;;;;;;5046105;28;20208;-23
2023/08/12 00:53:30;;;;;;;6.57;3.97;;;24.60;99.90;;;;;;5028594;28;20228;-23
2023/08/12 00:56:00;;;;;;;6.30;3.70;;;24.60;99.90;;;;;;5045018;28;20204;-23
2023/08/12 00:58:27;;;;;;;6.70;4.00;;;24.60;99.90;;;;;;5035372;28;20255;-23
2023/08/12 01:00:54;;;;;;;6.03;3.92;;;24.60;99.90;;;;;;5024371;28;20208;-23
2023/08/12 01:03:22;;;;;;;6.18;3.70;;;24.60;99.90;;;;;;5024393;28;20220;-23
2023/08/12 01:05:50;;;;;;;6.22;3.70;;;24.60;99.90;;;;;;5012264;28;20750;-23
2023/08/12 01:08:17;;;;;;;7.93;4.00;;;24.60;99.90;;;;;;5010938;28;20212;-23
2023/08/12 01:10:57;;;;;;;6.32;3.88;;;24.50;99.90;;;;;;5024283;28;20773;-23
2023/08/12 01:13:36;;;;;;;7.38;3.72;;;24.60;99.90;;;;;;5026037;28;20240;-23
2023/08/12 01:16:14;;;;;;;7.00;3.60;;;24.50;99.90;;;;;;5014045;28;20198;-23
2023/08/12 01:18:42;;;;;;;8.57;4.20;;;24.50;99.90;;;;;;5025559;28;20228;-23
2023/08/12 01:21:15;;;;;;;5.25;3.22;;;24.50;99.90;;;;;;5008231;28;20209;-23
2023/08/12 01:23:43;;;;;;;7.93;4.07;;;24.50;99.90;;;;;;5024338;28;20292;-23
2023/08/12 01:26:17;;;;;;;7.22;3.80;;;24.50;99.90;;;;;;5024551;28;20727;-23
2023/08/12 01:28:45;;;;;;;6.93;3.85;;;24.50;99.90;;;;;;5024315;28;20663;-22
2023/08/12 01:31:18;;;;;;;6.97;3.60;;;24.50;99.90;;;;;;5023996;28;20213;-23
2023/08/12 01:34:17;;;;;;;6.18;3.58;;;24.50;99.90;;;;;;5023026;28;20220;-23
2023/08/12 01:36:49;;;;;;;5.15;3.45;;;24.40;99.90;;;;;;5024072;28;20213;-23
2023/08/12 01:39:20;;;;;;;6.43;3.95;;;24.40;99.90;;;;;;5024579;28;20315;-22
2023/08/12 01:41:47;;;;;;;7.55;3.90;;;24.40;99.90;;;;;;5025949;28;20547;-23
2023/08/12 01:44:14;;;;;;;5.85;4.22;;;24.40;99.90;;;;;;5026414;28;20216;-22
2023/08/12 01:46:44;;;;;;;7.88;3.97;;;24.40;99.90;;;;;;5024401;28;20702;-23
2023/08/12 01:49:11;;;;;;;7.35;4.15;;;24.30;99.90;;;;;;5025552;28;20205;-23
2023/08/12 01:51:41;;;;;;;7.03;3.90;;;24.30;99.90;;;;;;5025311;28;20228;-23
2023/08/12 01:54:08;;;;;;;6.28;4.10;;;24.30;99.90;;;;;;5025573;28;20228;-23
2023/08/12 01:56:35;;;;;;;7.13;4.03;;;24.30;99.90;;;;;;5024294;28;20544;-22
2023/08/12 01:59:07;;;;;;;8.32;4.43;;;24.30;99.90;;;;;;5024383;28;20209;-30
2023/08/12 02:01:34;;;;;;;6.60;3.90;;;24.30;99.90;;;;;;5023764;28;20215;-30
2023/08/12 02:04:01;;;;;;;8.43;4.07;;;24.30;99.90;;;;;;5024031;28;20359;-30
2023/08/12 02:06:29;;;;;;;6.43;4.18;;;24.30;99.90;;;;;;5025877;28;20303;-30
2023/08/12 02:08:57;;;;;;;5.60;4.05;;;24.30;99.90;;;;;;5023996;28;20744;-30
2023/08/12 02:11:24;;;;;;;6.50;4.35;;;24.30;99.90;;;;;;5023795;28;20209;-30
2023/08/12 02:13:51;;;;;;;7.15;4.07;;;24.30;99.90;;;;;;5025557;28;20330;-30
2023/08/12 02:16:18;;;;;;;6.30;3.55;;;24.30;99.90;;;;;;5025543;28;20578;-30
2023/08/12 02:18:48;;;;;;;7.97;4.10;;;24.30;99.90;;;;;;5025957;28;20209;-30
2023/08/12 02:21:16;;;;;;;6.90;4.00;;;24.30;99.90;;;;;;5024436;28;20200;-30
2023/08/12 02:23:44;;;;;;;8.38;4.28;;;24.30;99.90;;;;;;5009570;28;20213;-29
2023/08/12 02:26:11;;;;;;;6.68;4.35;;;24.30;99.90;;;;;;5027762;28;20674;-30
2023/08/12 02:28:38;;;;;;;7.78;3.65;;;24.20;99.90;;;;;;5027628;28;20224;-30
2023/08/12 02:31:08;;;;;;;6.80;4.03;;;24.30;99.90;;;;;;5027745;28;20201;-30
2023/08/12 02:33:37;;;;;;;8.15;3.63;;;24.20;99.90;;;;;;5027764;28;20224;-30
2023/08/12 02:36:05;;;;;;;6.22;4.00;;;24.20;99.90;;;;;;5029097;28;20626;-30
2023/08/12 02:38:32;;;;;;;6.53;3.92;;;24.20;99.90;;;;;;5028848;28;20237;-30
2023/08/12 02:41:04;;;;;;;6.93;4.07;;;24.20;99.90;;;;;;5027193;28;20671;-30
2023/08/12 02:43:31;;;;;;;5.40;3.83;;;24.20;99.90;;;;;;5027044;28;20201;-30
2023/08/12 02:45:58;;;;;;;6.38;4.05;;;24.20;99.90;;;;;;5027078;28;20484;-30
2023/08/12 02:48:29;;;;;;;7.28;4.07;;;24.20;99.90;;;;;;5027401;28;20208;-30
2023/08/12 02:50:58;;;;;;;5.80;3.80;;;24.20;99.90;;;;;;5028881;28;20204;-23
2023/08/12 02:53:30;;;;;;;7.30;4.13;;;24.20;99.90;;;;;;5027258;28;20428;-22
2023/08/12 02:56:00;;;;;;;6.55;4.45;;;24.20;99.90;;;;;;5027694;28;20208;-23
2023/08/12 02:58:27;;;;;;;6.18;3.83;;;24.20;99.90;;;;;;5028614;28;20251;-23
2023/08/12 03:00:55;;;;;;;7.63;4.05;;;24.20;99.90;;;;;;5027003;28;20235;-23
2023/08/12 03:03:22;;;;;;;10.48;4.05;;;24.20;99.90;;;;;;5028322;28;20221;-23
2023/08/12 03:05:52;;;;;;;7.70;4.10;;;24.20;99.90;;;;;;5028670;28;20201;-23
2023/08/12 03:08:19;;;;;;;6.47;4.07;;;24.20;99.90;;;;;;5010490;28;20219;-23
2023/08/12 03:10:48;;;;;;;8.70;4.32;;;24.20;99.90;;;;;;5028460;28;20218;-23
2023/08/12 03:13:15;;;;;;;5.65;4.03;;;24.20;99.90;;;;;;5026784;28;20236;-23
2023/08/12 03:15:43;;;;;;;7.57;4.40;;;24.20;99.90;;;;;;5027102;28;20200;-30
2023/08/12 03:18:12;;;;;;;9.10;4.15;;;24.20;99.90;;;;;;5026871;28;20212;-30
2023/08/12 03:20:39;;;;;;;6.97;4.53;;;24.20;99.90;;;;;;5026527;28;20205;-30
2023/08/12 03:23:11;;;;;;;5.72;3.60;;;24.20;99.90;;;;;;5026504;28;20205;-30
2023/08/12 03:25:41;;;;;;;7.70;4.75;;;24.20;99.90;;;;;;5028273;28;20246;-30
2023/08/12 03:28:08;;;;;;;6.43;4.40;;;24.20;99.90;;;;;;5026863;28;20213;-30
2023/08/12 03:30:35;;;;;;;6.43;4.50;;;24.20;99.90;;;;;;5028676;28;20573;-30
2023/08/12 03:33:03;;;;;;;7.95;4.38;;;24.10;99.90;;;;;;5027191;28;20220;-30
2023/08/12 03:35:32;;;;;;;6.65;4.28;;;24.10;99.90;;;;;;5027824;28;20292;-30
2023/08/12 03:37:59;;;;;;;7.43;4.30;;;24.10;99.90;;;;;;5026320;28;20244;-30
2023/08/12 03:40:29;;;;;;;5.97;4.07;;;24.10;99.90;;;;;;5026320;28;20671;-30
2023/08/12 03:42:56;;;;;;;9.02;4.75;;;24.10;99.90;;;;;;5026552;28;20205;-30
2023/08/12 03:45:25;;;;;;;6.47;4.57;;;24.10;99.90;;;;;;5027866;28;20730;-31
2023/08/12 03:47:53;;;;;;;7.20;4.30;;;24.10;99.90;;;;;;5025962;28;20220;-30
2023/08/12 03:50:22;;;;;;;5.70;4.30;;;24.10;99.90;;;;;;5025937;28;20201;-30
2023/08/12 03:52:50;;;;;;;7.93;4.38;;;24.10;99.90;;;;;;5026333;28;20247;-30
2023/08/12 03:55:20;;;;;;;7.43;4.43;;;24.10;99.90;;;;;;5025937;28;20249;-30
2023/08/12 03:57:56;;;;;;;7.28;4.57;;;24.10;99.90;;;;;;5026307;28;20728;-30
2023/08/12 04:00:26;;;;;;;8.60;4.88;;;24.10;99.90;;;;;;5027295;28;20749;-30
2023/08/12 04:02:54;;;;;;;6.65;4.15;;;24.10;99.90;;;;;;5027571;28;20205;-29
2023/08/12 04:05:21;;;;;;;7.22;4.82;;;24.10;99.90;;;;;;5027755;28;20209;-29
2023/08/12 04:07:49;;;;;;;7.85;4.30;;;24.10;99.90;;;;;;5026491;28;20232;-29
2023/08/12 04:10:16;;;;;;;6.90;4.40;;;24.10;99.90;;;;;;5027873;28;20197;-29
2023/08/12 04:12:44;;;;;;;8.20;4.70;;;24.10;99.90;;;;;;5027419;28;20613;-28
2023/08/12 04:15:11;;;;;;;5.10;4.10;;;24.10;99.90;;;;;;5025368;28;20209;-28
2023/08/12 04:17:40;;;;;;;5.38;4.30;;;24.10;99.90;;;;;;5027005;28;20653;-28
2023/08/12 04:20:11;;;;;;;7.10;4.30;;;24.10;99.90;;;;;;5026949;28;20255;-29
2023/08/12 04:22:38;;;;;;;7.18;4.22;;;24.10;99.90;;;;;;5027507;28;20217;-28
2023/08/12 04:25:08;;;;;;;8.70;4.68;;;24.00;99.90;;;;;;5009105;28;20683;-28
2023/08/12 04:27:37;;;;;;;10.88;4.38;;;24.00;99.90;;;;;;5025342;28;20765;-28
2023/08/12 04:30:07;;;;;;;7.15;4.15;;;24.00;99.90;;;;;;5025274;28;20554;-28
2023/08/12 04:32:34;;;;;;;6.38;4.03;;;24.00;99.90;;;;;;5026667;28;20201;-28
2023/08/12 04:35:04;;;;;;;8.02;4.03;;;24.00;99.90;;;;;;5008825;28;20244;-28
2023/08/12 04:37:32;;;;;;;7.57;4.18;;;24.00;99.90;;;;;;5025145;28;20578;-28
2023/08/12 04:40:02;;;;;;;5.65;4.00;;;24.00;99.90;;;;;;5026595;28;20215;-28
2023/08/12 04:42:29;;;;;;;7.50;4.72;;;24.00;99.90;;;;;;5026889;28;20205;-28
2023/08/12 04:44:57;;;;;;;7.60;4.30;;;24.00;99.90;;;;;;5026672;28;20682;-28
2023/08/12 04:47:24;;;;;;;7.32;4.35;;;24.00;99.90;;;;;;5024847;28;20205;-28
2023/08/12 04:49:55;;;;;;;5.75;4.32;;;24.00;99.90;;;;;;5025666;28;20684;-29
2023/08/12 04:52:22;;;;;;;7.95;4.40;;;24.00;99.90;;;;;;5008636;28;20201;-28
2023/08/12 04:54:52;;;;;;;7.78;4.72;;;24.00;99.90;;;;;;5026276;28;20229;-28
2023/08/12 04:57:22;;;;;;;7.15;4.80;;;24.00;99.90;;;;;;5026817;28;20204;-22
2023/08/12 04:59:54;;;;;;;6.75;5.28;;;23.90;99.90;;;;;;5024968;28;20221;-22
2023/08/12 05:02:23;;;;;;;6.50;5.32;;;23.90;99.90;;;;;;5026347;28;20701;-22
2023/08/12 05:04:51;;;;;;;7.07;4.57;;;23.90;99.90;;;;;;5026388;28;20209;-22
2023/08/12 05:07:23;;;;;;;6.95;4.93;;;23.90;99.90;;;;;;5026373;28;20231;-22
2023/08/12 05:09:51;;;;;;;7.18;4.90;;;23.90;99.90;;;;;;5025992;28;20540;-22
2023/08/12 05:12:18;;;;;;;5.65;4.53;;;23.90;99.90;;;;;;5024480;28;20212;-22
2023/08/12 05:14:45;;;;;;;7.25;5.13;;;23.90;99.90;;;;;;5024669;28;20247;-22
2023/08/12 05:17:12;;;;;;;6.68;4.40;;;23.90;99.90;;;;;;5024778;28;20679;-22
2023/08/12 05:19:40;;;;;;;7.85;4.43;;;23.90;99.90;;;;;;5024620;28;20986;-22
2023/08/12 05:22:07;;;;;;;6.25;4.35;;;23.90;99.90;;;;;;5026411;28;20221;-22
2023/08/12 05:24:37;;;;;;;7.20;4.43;;;23.90;99.90;;;;;;5008761;28;20682;-22
2023/08/12 05:27:07;;;;;;;5.90;4.20;;;23.90;99.90;;;;;;5024427;28;20201;-22
2023/08/12 05:29:34;;;;;;;5.70;4.18;;;23.90;99.90;;;;;;5025892;28;20211;-22
2023/08/12 05:32:01;;;;;;;5.03;4.18;;;23.90;99.90;;;;;;5025696;28;20200;-22
2023/08/12 05:34:28;;;;;;;7.43;4.45;;;23.90;99.90;;;;;;5025828;28;20252;-22
2023/08/12 05:36:55;;;;;;;7.20;4.13;;;23.90;99.90;;;;;;5024160;28;20204;-22
2023/08/12 05:39:25;;;;;;;3.65;3.28;;;23.90;99.90;;;;;;5007692;28;20789;-22
2023/08/12 05:41:52;;;;;;;5.85;3.65;;;23.90;99.90;;;;;;5025973;28;20263;-22
2023/08/12 05:44:19;;;;;;;4.03;3.53;;;23.90;99.90;;;;;;5024292;28;20741;-22
2023/08/12 05:46:48;;;;;;;8.30;3.72;;;23.90;99.90;;;;;;5025592;28;20201;-28
2023/08/12 05:49:18;;;;;;;8.85;3.85;;;23.90;99.90;;;;;;5024461;28;20276;-29
2023/08/12 05:51:45;;;;;;;5.53;3.42;;;23.90;99.90;;;;;;5008334;28;20219;-29
2023/08/12 05:54:12;;;;;;;8.70;3.65;;;23.90;99.90;;;;;;5026105;28;20639;-29
2023/08/12 05:56:40;;;;;;;5.40;3.08;;;23.90;99.90;;;;;;5024383;28;20200;-29
2023/08/12 05:59:07;;;;;;;4.68;3.08;;;23.90;99.90;;;;;;5028742;28;20267;-29
2023/08/12 06:01:34;;;;;;;3.50;2.33;;;23.90;99.90;;;;;;5029734;28;20212;-29
2023/08/12 06:04:03;;;;;;;6.22;2.75;;;23.90;99.90;;;;;;5028267;28;20189;-29
2023/08/12 06:06:39;;;;;;;3.75;2.17;;;23.90;99.90;;;;;;5028156;28;20727;-28
2023/08/12 06:09:09;;;;;;;2.58;1.90;;;23.90;99.90;;;;;;5012497;28;20558;-29
2023/08/12 06:11:36;;;;;;;3.63;2.10;;;23.90;99.90;;;;;;5029803;28;20201;-29
2023/08/12 06:14:03;;;;;;;2.17;1.95;;;23.90;99.90;;;;;;5027745;28;20225;-29
2023/08/12 06:16:31;;;;;;;1.98;1.70;;;23.90;99.90;;;;;;5027872;28;20208;-29
2023/08/12 06:19:05;;;;;;;2.10;1.90;;;23.90;99.90;;;;;;5027890;28;20196;-29
2023/08/12 06:21:32;;;;;;;1.50;1.40;;;23.90;99.90;;;;;;5029466;28;20201;-29
2023/08/12 06:23:59;;;;;;;1.55;1.45;;;23.90;99.90;;;;;;5028862;28;20308;-29
2023/08/12 06:26:26;;;;;;;2.47;1.65;;;23.90;99.90;;;;;;5011274;28;20212;-29
2023/08/12 06:28:58;;;;;;;2.92;1.60;;;23.90;99.90;;;;;;5011942;28;20561;-29
2023/08/12 06:31:28;;;;;;;1.60;1.20;;;23.90;99.90;;;;;;5028983;28;20216;-29
2023/08/12 06:33:57;;;;;;;2.00;1.40;;;23.90;99.90;;;;;;5027802;28;20725;-29
2023/08/12 06:36:25;;;;;;;1.25;1.00;;;23.90;99.90;;;;;;5028061;28;20258;-29
2023/08/12 06:38:52;;;;;;;1.15;0.93;;;23.90;99.90;;;;;;5027332;28;20232;-29
2023/08/12 06:41:21;;;;;;;3.17;1.05;;;23.90;99.90;;;;;;5027665;28;20428;-29
2023/08/12 06:43:48;;;;;;;3.53;1.25;;;23.90;99.90;;;;;;5027555;28;20205;-29
2023/08/12 06:46:16;;;;;;;0.80;0.80;;;23.80;99.90;;;;;;5027461;28;20276;-30
2023/08/12 06:48:50;;;;;;;1.42;0.82;;;23.90;99.90;;;;;;5028769;28;20224;-29
2023/08/12 06:51:20;;;;;;;0.90;0.80;;;23.90;99.90;;;;;;5028524;28;20563;-29
2023/08/12 06:53:49;;;;;;;0.93;0.77;;;23.90;99.90;;;;;;5027061;28;20702;-29
2023/08/12 06:56:16;;;;;;;1.33;0.73;;;23.90;99.90;;;;;;5028227;28;20209;-29
2023/08/12 06:58:46;;;;;;;1.67;0.80;;;23.90;99.90;;;;;;5027082;28;20251;-29
2023/08/12 07:01:13;;;;;;;1.33;0.70;;;23.90;99.90;;;;;;5033653;28;20215;-29
2023/08/12 07:03:46;;;;;;;0.63;0.63;;;24.00;99.90;;;;;;5046002;28;20711;-29
2023/08/12 07:06:15;;;;;;;0.50;0.50;;;24.00;99.90;;;;;;5048459;28;20210;-29
2023/08/12 07:08:42;;;;;;;1.50;0.50;;;24.00;99.90;;;;;;5047530;28;20251;-29
2023/08/12 07:11:11;;;;;;;0.75;0.60;;;24.00;99.90;;;;;;5047117;28;20254;-29
2023/08/12 07:13:39;;;;;;;0.40;0.38;;;24.00;99.90;;;;;;5048430;28;20706;-29
2023/08/12 07:16:08;;;;;;;1.13;0.45;;;24.00;99.90;;;;;;5048003;28;20630;-29
2023/08/12 07:18:35;;;;;;;1.27;0.55;;;24.00;99.90;;;;;;5048017;28;20196;-29
2023/08/12 07:21:05;;;;;;;0.98;0.60;;;24.00;99.90;;;;;;5047807;28;20705;-29
2023/08/12 07:23:33;;;;;;;1.50;0.40;;;24.00;99.90;;;;;;5047968;28;20813;-29
2023/08/12 07:26:02;;;;;;;1.88;0.50;;;24.00;99.90;;;;;;5046268;28;20542;-29
2023/08/12 07:28:29;;;;;;;1.00;0.60;;;24.00;99.90;;;;;;5046429;28;20201;-29
2023/08/12 07:30:56;;;;;;;1.75;0.70;;;24.10;99.90;;;;;;5047598;28;20755;-29
2023/08/12 07:33:27;;;;;;;5.47;1.25;;;24.10;99.90;;;;;;5046081;28;20710;-29
2023/08/12 07:35:55;;;;;;;0.88;0.50;;;24.10;99.90;;;;;;5046221;28;20413;-29
2023/08/12 07:38:22;;;;;;;1.15;0.55;;;24.10;99.90;;;;;;5046191;28;20251;-29
2023/08/12 07:40:52;;;;;;;0.50;0.50;;;24.10;99.90;;;;;;5047981;28;20254;-29
2023/08/12 07:43:24;;;;;;;0.68;0.50;;;24.20;99.90;;;;;;5046646;28;20210;-29
2023/08/12 07:45:54;;;;;;;1.10;0.50;;;24.20;99.90;;;;;;5047768;28;20200;-29
2023/08/12 07:48:35;;;;;;;1.02;0.70;;;24.20;99.90;;;;;;5046697;28;20710;-29
2023/08/12 07:51:04;;;;;;;2.90;0.50;;;24.20;99.90;;;;;;5046122;28;20227;-29
2023/08/12 07:53:32;;;;;;;1.55;0.60;;;24.20;99.90;;;;;;5027708;28;20208;-29
2023/08/12 07:56:01;;;;;;;0.40;0.40;;;24.30;99.90;;;;;;5045379;28;20262;-29
2023/08/12 07:58:30;;;;;;;0.63;0.50;;;24.30;99.90;;;;;;5047371;28;20794;-29
2023/08/12 08:01:00;;;;;;;0.60;0.60;;;24.30;99.90;;;;;;5047463;28;20200;-29
2023/08/12 08:03:27;;;;;;;0.50;0.50;;;24.30;99.90;;;;;;5047380;28;20741;-30
2023/08/12 08:05:55;;;;;;;2.00;0.70;;;24.30;99.90;;;;;;5045750;28;20197;-29
2023/08/12 08:08:24;;;;;;;2.72;1.92;;;24.30;99.90;;;;;;5045836;28;20226;-29
2023/08/12 08:10:56;;;;;;;1.48;1.38;;;24.30;99.90;;;;;;5029705;28;20200;-29
2023/08/12 08:13:24;;;;;;;1.92;1.83;;;24.30;99.90;;;;;;5045431;28;20614;-29
2023/08/12 08:15:58;;;;;;;3.13;2.17;;;24.30;99.90;;;;;;5045607;28;20317;-29
2023/08/12 08:18:28;;;;;;;5.50;2.30;;;24.30;99.90;;;;;;5045924;28;20192;-29
2023/08/12 08:20:58;;;;;;;1.85;1.73;;;24.20;99.90;;;;;;5045621;28;20210;-30
2023/08/12 08:23:33;;;;;;;3.90;1.98;;;24.20;99.90;;;;;;5045595;28;20192;-30
2023/08/12 08:26:08;;;;;;;2.35;1.40;;;24.20;99.90;;;;;;5046079;28;20726;-29
2023/08/12 08:28:38;;;;;;;4.97;1.42;;;24.20;99.90;;;;;;5045219;28;20199;-29
2023/08/12 08:31:05;;;;;;;1.58;1.42;;;24.10;99.90;;;;;;5045568;28;20208;-29
2023/08/12 08:33:37;;;;;;;1.50;1.40;;;24.10;99.90;;;;;;5045933;28;20298;-29
2023/08/12 08:36:05;;;;;;;1.65;1.55;;;24.00;99.90;;;;;;5046610;28;20335;-29
2023/08/12 08:38:34;;;;;;;1.83;1.50;;;24.00;99.90;;;;;;5045040;28;20224;-29
2023/08/12 08:41:05;;;;;;;2.50;1.42;;;24.00;99.90;;;;;;5046305;28;20211;-29
2023/08/12 08:43:35;;;;;;;1.30;1.20;;;24.00;99.90;;;;;;5044684;28;20226;-29
2023/08/12 08:46:06;;;;;;;1.65;1.55;;;23.90;99.90;;;;;;5046645;28;20223;-29
2023/08/12 08:48:34;;;;;;;1.63;1.50;;;23.90;99.90;;;;;;5028852;28;20197;-29
2023/08/12 08:51:06;;;;;;;1.45;1.35;;;23.90;99.90;;;;;;5044891;28;20295;-29
2023/08/12 08:53:37;;;;;;;2.10;1.90;;;24.00;99.90;;;;;;5046795;28;20213;-28
2023/08/12 08:56:07;;;;;;;3.53;1.80;;;24.00;99.90;;;;;;5044803;28;20231;-29
2023/08/12 08:58:41;;;;;;;2.00;1.90;;;23.90;99.90;;;;;;5045037;28;20196;-29
2023/08/12 09:01:09;;;;;;;2.22;2.03;;;24.00;99.90;;;;;;5046246;28;20734;-29
2023/08/12 09:03:39;;;;;;;2.03;1.80;;;24.00;99.90;;;;;;5046736;28;20208;-29
2023/08/12 09:06:09;;;;;;;2.88;2.05;;;24.00;99.90;;;;;;5045968;28;20208;-29
2023/08/12 09:08:41;;;;;;;3.20;2.17;;;24.00;99.90;;;;;;5046229;28;20250;-29
2023/08/12 09:11:08;;;;;;;4.30;2.30;;;24.00;99.90;;;;;;5044343;28;20617;-29
2023/08/12 09:13:35;;;;;;;2.63;2.42;;;24.00;99.90;;;;;;5046195;28;20203;-30
2023/08/12 09:16:03;;;;;;;3.90;2.40;;;24.10;99.90;;;;;;5027882;28;20414;-30
2023/08/12 09:18:31;;;;;;;2.63;2.40;;;24.00;99.90;;;;;;5044296;28;20258;-30
2023/08/12 09:21:01;;;;;;;3.40;2.28;;;24.00;99.90;;;;;;5046004;28;20845;-30
2023/08/12 09:23:43;;;;;;;2.60;2.40;;;24.00;99.90;;;;;;5044343;28;20200;-30
2023/08/12 09:26:16;;;;;;;2.35;2.15;;;24.00;99.90;;;;;;5044457;28;20938;-30
2023/08/12 09:28:43;;;;;;;2.90;2.10;;;24.00;99.90;;;;;;5044446;28;20652;-30
2023/08/12 09:31:25;;;;;;;2.67;2.47;;;24.00;99.90;;;;;;5045675;28;20693;-30
2023/08/12 09:33:53;;;;;;;2.80;2.47;;;24.00;99.90;;;;;;5043770;28;20208;-30
2023/08/12 09:36:27;;;;;;;2.92;2.63;;;24.00;99.90;;;;;;5043936;28;20325;-30
2023/08/12 09:38:54;;;;;;;3.33;2.75;;;23.90;99.90;;;;;;5044197;28;20287;-29
2023/08/12 09:41:26;;;;;;;2.92;2.72;;;23.90;99.90;;;;;;5044464;28;20228;-29
2023/08/12 09:43:54;;;;;;;2.78;2.25;;;23.90;99.90;;;;;;5044138;28;20207;-22
2023/08/12 09:46:26;;;;;;;4.68;2.83;;;23.80;99.90;;;;;;5045165;28;20223;-22
2023/08/12 09:48:53;;;;;;;4.20;2.78;;;23.80;99.90;;;;;;5044025;28;20461;-22
2023/08/12 09:51:27;;;;;;;3.60;3.13;;;23.80;99.90;;;;;;5045420;28;20546;-22
2023/08/12 09:53:55;;;;;;;4.25;3.05;;;23.80;99.90;;;;;;5044190;28;20244;-22
2023/08/12 09:56:29;;;;;;;5.53;3.30;;;23.80;99.90;;;;;;5043912;28;20235;-22
2023/08/12 09:58:57;;;;;;;4.05;2.95;;;23.90;99.90;;;;;;5045309;28;20214;-22
2023/08/12 10:01:29;;;;;;;3.40;2.83;;;23.80;99.90;;;;;;5045605;28;20204;-22
2023/08/12 10:04:00;;;;;;;4.90;2.40;;;23.80;99.90;;;;;;5045466;28;20235;-22
2023/08/12 10:06:29;;;;;;;2.50;2.30;;;23.80;99.90;;;;;;5045565;28;20208;-22
2023/08/12 10:09:00;;;;;;;2.67;2.45;;;23.80;99.90;;;;;;5045159;28;20214;-22
2023/08/12 10:11:27;;;;;;;3.08;2.78;;;23.80;99.90;;;;;;5043454;28;20306;-22
2023/08/12 10:13:56;;;;;;;2.92;2.60;;;23.80;99.90;;;;;;5043555;28;20211;-22
2023/08/12 10:16:26;;;;;;;4.43;2.88;;;23.70;99.90;;;;;;5043853;28;20301;-22
2023/08/12 10:18:53;;;;;;;4.75;2.63;;;23.70;99.90;;;;;;5043760;28;20196;-22
2023/08/12 10:21:24;;;;;;;3.08;2.40;;;23.70;99.90;;;;;;5043690;28;20331;-22
2023/08/12 10:23:54;;;;;;;3.10;2.28;;;23.70;99.90;;;;;;5043666;28;20743;-22
2023/08/12 10:26:22;;;;;;;4.32;2.58;;;23.70;99.90;;;;;;5043706;28;20281;-22
2023/08/12 10:28:50;;;;;;;2.78;2.10;;;23.70;99.90;;;;;;5043617;28;20232;-23
2023/08/12 10:31:22;;;;;;;3.28;2.50;;;23.70;99.90;;;;;;5043494;28;20247;-22
2023/08/12 10:33:55;;;;;;;4.72;2.40;;;23.70;99.90;;;;;;5026947;28;20295;-22
2023/08/12 10:36:22;;;;;;;3.38;1.90;;;23.70;99.90;;;;;;5043225;28;20699;-22
2023/08/12 10:38:49;;;;;;;3.60;1.90;;;23.70;99.90;;;;;;5043301;28;20252;-22
2023/08/12 10:41:20;;;;;;;3.45;2.15;;;23.70;99.90;;;;;;5027155;28;20223;-22
2023/08/12 10:44:11;;;;;;;4.22;1.92;;;23.70;99.90;;;;;;5045606;28;20197;-22
2023/08/12 10:46:38;;;;;;;2.42;1.40;;;23.70;99.90;;;;;;5027092;28;20200;-22
2023/08/12 10:49:14;;;;;;;4.30;1.60;;;23.60;99.90;;;;;;5030660;28;20838;-22
2023/08/12 10:51:46;;;;;;;2.47;1.25;;;23.60;99.90;;;;;;5048924;28;20200;-22
2023/08/12 10:54:17;;;;;;;2.55;1.38;;;23.60;99.90;;;;;;5049019;28;20214;-22
2023/08/12 10:57:03;;;;;;;2.42;1.10;;;23.60;99.90;;;;;;5047104;28;20234;-22
2023/08/12 10:59:46;;;;;;;2.45;1.40;;;23.70;99.90;;;;;;5048176;28;20744;-22
2023/08/12 11:02:16;;;;;;;3.60;1.48;;;23.80;99.90;;;;;;5046826;28;20696;-22
2023/08/12 11:04:48;;;;;;;2.88;1.40;;;23.80;99.90;;;;;;5048033;28;20232;-22
2023/08/12 11:07:18;;;;;;;3.40;1.38;;;23.90;99.90;;;;;;5046917;28;20655;-22
2023/08/12 11:09:53;;;;;;;4.95;1.40;;;24.00;99.90;;;;;;5046617;28;20575;-22
2023/08/12 11:12:30;;;;;;;3.22;1.70;;;24.00;99.90;;;;;;5046934;28;20738;-22
2023/08/12 11:15:00;;;;;;;2.60;1.23;;;24.10;99.90;;;;;;5048095;28;20236;-22
2023/08/12 11:17:35;;;;;;;1.48;1.15;;;24.10;99.90;;;;;;5047952;28;20188;-22
2023/08/12 11:20:06;;;;;;;5.25;1.30;;;24.20;99.90;;;;;;5047836;28;20204;-22
2023/08/12 11:22:37;;;;;;;3.20;1.55;;;24.20;99.90;;;;;;5046716;28;20257;-22
2023/08/12 11:25:10;;;;;;;3.97;1.40;;;24.30;99.90;;;;;;5047840;28;20218;-22
2023/08/12 11:27:45;;;;;;;3.22;1.50;;;24.30;99.90;;;;;;5030714;28;20210;-22
2023/08/12 11:30:16;;;;;;;2.88;1.20;;;24.40;99.90;;;;;;5046700;28;20220;-22
2023/08/12 11:32:49;;;;;;;3.45;1.50;;;24.40;99.90;;;;;;5047828;28;20206;-22
2023/08/12 11:35:20;;;;;;;5.30;1.77;;;24.40;99.90;;;;;;5046151;28;20231;-22
2023/08/12 11:37:49;;;;;;;2.65;1.40;;;24.40;99.90;;;;;;5048031;28;20262;-22
2023/08/12 11:40:20;;;;;;;3.53;1.15;;;24.40;99.90;;;;;;5046519;28;20220;-22
2023/08/12 11:42:49;;;;;;;4.85;1.77;;;24.40;99.90;;;;;;5047919;28;20268;-22
2023/08/12 11:45:21;;;;;;;2.63;1.27;;;24.30;99.90;;;;;;5047325;28;20647;-22
2023/08/12 11:47:55;;;;;;;3.78;1.95;;;24.30;99.90;;;;;;5046150;28;20239;-22
2023/08/12 11:50:25;;;;;;;7.40;1.90;;;24.30;99.90;;;;;;5047545;28;20203;-22
2023/08/12 11:52:55;;;;;;;2.97;1.40;;;24.30;99.90;;;;;;5045841;28;20204;-22
2023/08/12 11:55:22;;;;;;;3.70;1.70;;;24.30;99.90;;;;;;5029097;28;20235;-22
2023/08/12 11:57:51;;;;;;;3.58;1.70;;;24.30;99.90;;;;;;5045468;28;20204;-22
2023/08/12 12:00:19;;;;;;;4.53;1.60;;;24.30;99.90;;;;;;5047005;28;20204;-22
2023/08/12 12:02:50;;;;;;;3.67;1.73;;;24.40;99.90;;;;;;5045528;28;20204;-22
2023/08/12 12:05:21;;;;;;;5.10;1.75;;;24.40;99.90;;;;;;5047542;28;20211;-22
2023/08/12 12:07:52;;;;;;;3.72;1.60;;;24.40;99.90;;;;;;5047002;28;20215;-22
2023/08/12 12:10:31;;;;;;;2.70;1.30;;;24.50;99.90;;;;;;5045554;28;20224;-22
2023/08/12 12:13:05;;;;;;;5.82;1.63;;;24.50;99.90;;;;;;5045432;28;20633;-22
2023/08/12 12:15:46;;;;;;;2.75;1.30;;;24.50;99.90;;;;;;5046856;28;20228;-22
2023/08/12 12:18:14;;;;;;;3.05;1.33;;;24.50;99.90;;;;;;5044944;28;20212;-22
2023/08/12 12:20:55;;;;;;;3.20;1.52;;;24.60;99.90;;;;;;5045321;28;20200;-22
2023/08/12 12:23:31;;;;;;;2.97;1.70;;;24.60;99.90;;;;;;5046725;28;20224;-22
2023/08/12 12:26:02;;;;;;;3.90;1.42;;;24.70;99.90;;;;;;5045002;28;20219;-22
2023/08/12 12:28:30;;;;;;;2.67;1.35;;;24.70;99.90;;;;;;5045458;28;20208;-22
2023/08/12 12:30:59;;;;;;;5.68;1.50;;;24.70;99.90;;;;;;5045283;28;20586;-22
2023/08/12 12:33:27;;;;;;;4.97;1.70;;;24.70;99.90;;;;;;5045302;28;20702;-22
2023/08/12 12:35:54;;;;;;;4.07;1.48;;;24.70;99.90;;;;;;5045030;28;20228;-22
2023/08/12 12:38:33;;;;;;;5.15;1.48;;;24.70;99.90;;;;;;5046632;28;20328;-22
2023/08/12 12:41:01;;;;;;;3.25;1.30;;;24.70;99.90;;;;;;5045217;28;20193;-22
2023/08/12 12:43:30;;;;;;;4.45;1.25;;;24.60;99.90;;;;;;5044948;28;20201;-22
2023/08/12 12:46:02;;;;;;;3.65;1.10;;;24.60;99.90;;;;;;5028156;28;20259;-22
2023/08/12 12:48:29;;;;;;;6.13;1.50;;;24.50;99.90;;;;;;5044979;28;20227;-22
2023/08/12 12:50:57;;;;;;;4.82;1.17;;;24.50;99.90;;;;;;5046867;28;20534;-22
2023/08/12 12:53:24;;;;;;;3.88;1.27;;;24.50;99.90;;;;;;5046059;28;20250;-22
2023/08/12 12:55:57;;;;;;;5.43;1.48;;;24.50;99.90;;;;;;5044165;28;20224;-22
2023/08/12 12:58:24;;;;;;;3.80;1.63;;;24.50;99.90;;;;;;5045804;28;20700;-22
2023/08/12 13:00:51;;;;;;;3.67;1.42;;;24.40;99.90;;;;;;5044376;28;20204;-22